createdAt,value
2018-11-14T00:00:32.185Z,11.70
2018-11-14T00:03:03.015Z,10.80
2018-11-14T00:05:32.381Z,11.67
2018-11-14T00:08:02.581Z,11.33
2018-11-14T00:10:31.855Z,11.73
2018-11-14T00:13:01.155Z,10.93
2018-11-14T00:15:30.815Z,11.10
2018-11-14T00:18:00.136Z,11.20
2018-11-14T00:20:29.410Z,11.23
2018-11-14T00:22:58.752Z,11.30
2018-11-14T00:25:29.045Z,11.50
2018-11-14T00:27:58.483Z,11.93
2018-11-14T00:30:27.742Z,10.90
2018-11-14T00:32:57.058Z,11.13
2018-11-14T00:35:26.374Z,11.60
2018-11-14T00:37:55.811Z,12.40
2018-11-14T00:40:25.269Z,11.70
2018-11-14T00:42:54.562Z,11.33
2018-11-14T00:45:23.867Z,12.60
2018-11-14T00:47:53.119Z,11.43
2018-11-14T00:50:22.427Z,12.00
2018-11-14T00:52:51.878Z,12.13
2018-11-14T00:55:22.372Z,12.27
2018-11-14T00:57:53.412Z,12.10
2018-11-14T01:00:23.916Z,12.03
2018-11-14T01:02:53.292Z,12.37
2018-11-14T01:05:22.657Z,12.50
2018-11-14T01:07:51.911Z,14.27
2018-11-14T01:10:22.372Z,14.17
2018-11-14T01:12:52.427Z,12.27
2018-11-14T01:15:22.831Z,13.20
2018-11-14T01:17:52.115Z,13.23
2018-11-14T01:20:22.665Z,13.70
2018-11-14T01:22:51.948Z,13.40
2018-11-14T01:25:21.267Z,13.30
2018-11-14T01:27:50.572Z,14.40
2018-11-14T01:30:23.114Z,14.50
2018-11-14T01:32:53.071Z,15.30
2018-11-14T01:35:22.663Z,14.87
2018-11-14T01:37:51.921Z,15.90
2018-11-14T01:40:24.508Z,15.27
2018-11-14T01:42:55.052Z,15.50
2018-11-14T01:45:24.379Z,14.10
2018-11-14T01:47:53.690Z,16.20
2018-11-14T01:50:23.028Z,16.50
2018-11-14T01:52:52.454Z,16.07
2018-11-14T01:55:22.192Z,17.20
2018-11-14T01:57:51.469Z,18.67
2018-11-14T02:00:22.055Z,18.73
2018-11-14T02:02:51.943Z,19.70
2018-11-14T02:05:21.205Z,18.97
2018-11-14T02:07:50.580Z,19.67
2018-11-14T02:10:21.039Z,20.57
2018-11-14T02:12:50.339Z,19.07
2018-11-14T02:15:21.934Z,20.13
2018-11-14T02:17:51.599Z,20.10
2018-11-14T02:20:20.875Z,20.87
2018-11-14T02:22:50.632Z,19.60
2018-11-14T02:25:20.223Z,19.70
2018-11-14T02:27:49.530Z,21.37
2018-11-14T02:30:23.061Z,19.90
2018-11-14T02:32:52.437Z,19.43
2018-11-14T02:35:21.728Z,21.40
2018-11-14T02:37:51.050Z,20.97
2018-11-14T02:40:21.440Z,20.97
2018-11-14T02:42:50.937Z,20.50
2018-11-14T02:45:20.553Z,19.97
2018-11-14T02:47:49.851Z,20.67
2018-11-14T02:50:19.882Z,21.20
2018-11-14T02:52:49.225Z,21.47
2018-11-14T02:55:18.926Z,21.57
2018-11-14T02:57:48.407Z,19.60
2018-11-14T03:00:19.402Z,21.20
2018-11-14T03:02:48.722Z,21.83
2018-11-14T03:05:18.127Z,22.83
2018-11-14T03:07:47.917Z,22.13
2018-11-14T03:10:20.925Z,21.07
2018-11-14T03:12:50.328Z,20.77
2018-11-14T03:15:21.793Z,21.10
2018-11-14T03:17:51.107Z,22.47
2018-11-14T03:20:21.400Z,20.50
2018-11-14T03:22:50.713Z,21.23
2018-11-14T03:25:20.556Z,19.67
2018-11-14T03:27:49.857Z,21.53
2018-11-14T03:30:19.636Z,21.00
2018-11-14T03:32:49.012Z,20.37
2018-11-14T03:35:18.374Z,22.27
2018-11-14T03:37:47.642Z,21.60
2018-11-14T03:40:17.558Z,22.03
2018-11-14T03:42:46.865Z,23.50
2018-11-14T03:45:16.603Z,23.33
2018-11-14T03:47:46.199Z,21.77
2018-11-14T03:50:15.482Z,23.50
2018-11-14T03:52:44.829Z,22.80
2018-11-14T03:55:14.151Z,24.90
2018-11-14T03:57:43.407Z,24.70
2018-11-14T04:00:16.824Z,24.03
2018-11-14T04:02:47.134Z,24.60
2018-11-14T04:05:16.641Z,26.20
2018-11-14T04:07:46.951Z,25.43
2018-11-14T04:10:16.304Z,26.60
2018-11-14T04:12:45.606Z,26.77
2018-11-14T04:15:15.766Z,26.80
2018-11-14T04:17:45.055Z,27.07
2018-11-14T04:20:15.611Z,25.90
2018-11-14T04:22:45.452Z,27.00
2018-11-14T04:25:16.478Z,28.20
2018-11-14T04:27:46.348Z,29.67
2018-11-14T04:30:18.995Z,30.87
2018-11-14T04:32:48.274Z,27.40
2018-11-14T04:35:18.429Z,30.80
2018-11-14T04:37:47.722Z,30.60
2018-11-14T04:40:19.616Z,32.30
2018-11-14T04:42:49.004Z,29.83
2018-11-14T04:45:23.478Z,32.00
2018-11-14T04:47:53.025Z,31.10
2018-11-14T04:50:24.335Z,30.73
2018-11-14T04:52:54.095Z,30.27
2018-11-14T04:55:24.519Z,31.13
2018-11-14T04:57:53.792Z,32.00
2018-11-14T05:00:24.273Z,32.40
2018-11-14T05:02:53.707Z,33.17
2018-11-14T05:05:24.081Z,31.23
2018-11-14T05:07:53.779Z,32.10
2018-11-14T05:10:25.412Z,33.60
2018-11-14T05:12:54.810Z,32.20
2018-11-14T05:15:25.880Z,32.67
2018-11-14T05:17:55.841Z,32.97
2018-11-14T05:20:25.103Z,32.10
2018-11-14T05:22:54.413Z,32.97
2018-11-14T05:25:24.297Z,32.67
2018-11-14T05:27:53.553Z,33.10
2018-11-14T05:30:23.830Z,35.10
2018-11-14T05:32:53.668Z,33.20
2018-11-14T05:35:23.024Z,32.23
2018-11-14T05:37:52.263Z,32.53
2018-11-14T05:40:22.791Z,33.50
2018-11-14T05:42:52.893Z,35.43
2018-11-14T05:45:23.310Z,34.10
2018-11-14T05:47:52.694Z,36.63
2018-11-14T05:50:22.970Z,33.40
2018-11-14T05:52:52.260Z,34.40
2018-11-14T05:55:21.551Z,32.93
2018-11-14T05:57:53.647Z,34.37
2018-11-14T06:00:30.936Z,34.33
2018-11-14T06:03:01.314Z,36.03
2018-11-14T06:05:30.587Z,34.70
2018-11-14T06:07:59.974Z,35.63
2018-11-14T06:10:29.757Z,35.53
2018-11-14T06:12:59.072Z,33.33
2018-11-14T06:15:28.457Z,33.53
2018-11-14T06:17:58.686Z,32.83
2018-11-14T06:20:28.090Z,34.17
2018-11-14T06:22:57.644Z,33.73
2018-11-14T06:25:36.683Z,35.10
2018-11-14T06:28:07.503Z,33.47
2018-11-14T06:30:37.734Z,35.60
2018-11-14T06:33:08.244Z,33.93
2018-11-14T06:35:37.743Z,36.20
2018-11-14T06:38:07.081Z,35.07
2018-11-14T06:40:36.465Z,35.40
2018-11-14T06:43:06.080Z,34.93
2018-11-14T06:45:35.940Z,35.13
2018-11-14T06:48:06.261Z,37.60
2018-11-14T06:50:35.568Z,38.13
2018-11-14T06:53:06.224Z,37.47
2018-11-14T06:55:35.552Z,34.43
2018-11-14T06:58:04.999Z,35.87
2018-11-14T07:00:35.321Z,35.97
2018-11-14T07:03:05.876Z,36.57
2018-11-14T07:05:35.369Z,33.23
2018-11-14T07:08:04.749Z,35.50
2018-11-14T07:10:36.732Z,35.10
2018-11-14T07:13:07.450Z,35.73
2018-11-14T07:15:37.300Z,34.50
2018-11-14T07:18:07.771Z,36.03
2018-11-14T07:20:38.763Z,36.63
2018-11-14T07:23:08.308Z,35.27
2018-11-14T07:25:37.556Z,35.20
2018-11-14T07:28:07.069Z,37.47
2018-11-14T07:30:36.994Z,34.93
2018-11-14T07:33:07.682Z,37.13
2018-11-14T07:35:37.024Z,35.30
2018-11-14T07:38:33.418Z,36.20
2018-11-14T07:41:03.848Z,34.60
2018-11-14T07:43:34.294Z,35.43
2018-11-14T07:46:03.644Z,32.83
2018-11-14T07:48:33.425Z,36.63
2018-11-14T07:51:03.230Z,35.20
2018-11-14T07:53:33.242Z,33.90
2018-11-14T07:56:02.713Z,34.47
2018-11-14T07:58:32.345Z,34.40
2018-11-14T08:01:01.738Z,34.43
2018-11-14T08:03:31.036Z,32.43
2018-11-14T08:06:00.349Z,35.90
2018-11-14T08:08:29.781Z,32.47
2018-11-14T08:10:59.710Z,33.80
2018-11-14T08:13:30.379Z,33.93
2018-11-14T08:16:00.555Z,34.47
2018-11-14T08:18:29.943Z,36.70
2018-11-14T08:21:00.273Z,34.80
2018-11-14T08:23:29.687Z,33.03
2018-11-14T08:25:59.173Z,34.50
2018-11-14T08:28:28.509Z,31.97
2018-11-14T08:30:58.317Z,33.87
2018-11-14T08:33:27.650Z,33.13
2018-11-14T08:35:56.995Z,34.83
2018-11-14T08:38:26.340Z,35.80
2018-11-14T08:40:55.849Z,35.23
2018-11-14T08:43:25.171Z,33.20
2018-11-14T08:45:54.700Z,34.30
2018-11-14T08:48:23.980Z,32.30
2018-11-14T08:50:53.310Z,33.63
2018-11-14T08:53:22.859Z,34.23
2018-11-14T08:55:52.176Z,35.53
2018-11-14T08:58:21.565Z,33.40
2018-11-14T09:00:50.897Z,31.90
2018-11-14T09:03:20.188Z,33.80
2018-11-14T09:05:49.524Z,32.20
2018-11-14T09:08:18.848Z,31.90
2018-11-14T09:10:48.171Z,33.60
2018-11-14T09:13:18.080Z,33.53
2018-11-14T09:15:47.720Z,32.70
2018-11-14T09:18:17.086Z,30.80
2018-11-14T09:20:46.330Z,31.57
2018-11-14T09:23:15.642Z,32.80
2018-11-14T09:25:44.965Z,31.20
2018-11-14T09:28:14.350Z,31.03
2018-11-14T09:30:43.740Z,29.63
2018-11-14T09:33:13.131Z,31.37
2018-11-14T09:35:42.577Z,29.70
2018-11-14T09:38:12.443Z,29.10
2018-11-14T09:40:41.781Z,30.17
2018-11-14T09:43:11.096Z,30.20
2018-11-14T09:45:40.465Z,30.13
2018-11-14T09:48:09.818Z,28.30
2018-11-14T09:50:39.122Z,29.27
2018-11-14T09:53:08.569Z,27.73
2018-11-14T09:55:37.835Z,27.27
2018-11-14T09:58:07.240Z,26.93
2018-11-14T10:00:36.693Z,26.70
2018-11-14T10:03:13.541Z,27.20
2018-11-14T10:05:43.084Z,28.17
2018-11-14T10:08:12.415Z,25.17
2018-11-14T10:10:41.769Z,25.70
2018-11-14T10:13:11.097Z,25.20
2018-11-14T10:15:40.476Z,27.60
2018-11-14T10:18:09.734Z,25.60
2018-11-14T10:20:39.735Z,24.60
2018-11-14T10:23:09.030Z,25.87
2018-11-14T10:25:38.333Z,23.57
2018-11-14T10:28:07.783Z,23.77
2018-11-14T10:30:38.047Z,23.77
2018-11-14T10:33:07.433Z,24.77
2018-11-14T10:35:37.011Z,23.00
2018-11-14T10:38:06.473Z,22.70
2018-11-14T10:40:35.824Z,23.77
2018-11-14T10:43:05.592Z,23.60
2018-11-14T10:45:34.846Z,25.60
2018-11-14T10:48:04.155Z,24.87
2018-11-14T10:50:33.519Z,26.17
2018-11-14T10:53:02.824Z,25.37
2018-11-14T10:55:32.119Z,26.27
2018-11-14T10:58:01.448Z,24.67
2018-11-14T11:00:35.981Z,24.00
2018-11-14T11:03:10.968Z,25.10
2018-11-14T11:05:45.475Z,27.90
2018-11-14T11:08:20.640Z,26.70
2018-11-14T11:10:55.588Z,24.40
2018-11-14T11:13:30.317Z,24.57
2018-11-14T11:16:05.110Z,24.17
2018-11-14T11:18:35.976Z,25.77
2018-11-14T11:21:05.327Z,25.93
2018-11-14T11:23:34.728Z,25.20
2018-11-14T11:26:04.332Z,22.80
2018-11-14T11:28:33.741Z,25.30
2018-11-14T11:31:03.242Z,26.80
2018-11-14T11:33:32.696Z,25.50
2018-11-14T11:36:02.022Z,26.40
2018-11-14T11:38:31.324Z,27.20
2018-11-14T11:41:00.836Z,26.50
2018-11-14T11:43:30.221Z,29.10
2018-11-14T11:45:59.580Z,26.10
2018-11-14T11:48:28.867Z,26.67
2018-11-14T11:50:58.336Z,26.23
2018-11-14T11:53:27.653Z,28.97
2018-11-14T11:55:57.150Z,28.47
2018-11-14T11:58:26.465Z,26.30
2018-11-14T12:00:55.891Z,25.63
2018-11-14T12:03:25.396Z,26.10
2018-11-14T12:06:01.361Z,25.60
2018-11-14T12:08:30.647Z,26.63
2018-11-14T12:10:59.952Z,28.17
2018-11-14T12:13:29.300Z,25.23
2018-11-14T12:15:58.944Z,26.10
2018-11-14T12:18:28.275Z,24.23
2018-11-14T12:20:57.784Z,24.17
2018-11-14T12:23:27.491Z,23.70
2018-11-14T12:25:57.098Z,23.93
2018-11-14T12:28:26.421Z,24.10
2018-11-14T12:30:56.044Z,25.40
2018-11-14T12:33:25.231Z,22.43
2018-11-14T12:35:54.911Z,23.67
2018-11-14T12:38:24.412Z,22.87
2018-11-14T12:40:53.840Z,22.33
2018-11-14T12:43:23.207Z,22.20
2018-11-14T12:45:52.883Z,23.07
2018-11-14T12:48:22.185Z,21.97
2018-11-14T12:50:51.497Z,21.43
2018-11-14T12:53:20.827Z,21.10
2018-11-14T12:55:50.127Z,19.77
2018-11-14T12:58:19.563Z,20.87
2018-11-14T13:00:48.891Z,21.27
2018-11-14T13:03:18.171Z,21.47
2018-11-14T13:05:47.475Z,21.00
2018-11-14T13:08:17.212Z,21.43
2018-11-14T13:10:46.495Z,20.30
2018-11-14T13:13:15.818Z,17.10
2018-11-14T13:15:45.158Z,18.97
2018-11-14T13:18:14.588Z,19.50
2018-11-14T13:20:43.914Z,17.67
2018-11-14T13:23:13.261Z,17.60
2018-11-14T13:25:42.633Z,18.10
2018-11-14T13:28:11.931Z,18.10
2018-11-14T13:30:41.568Z,16.97
2018-11-14T13:33:10.892Z,15.63
2018-11-14T13:35:40.391Z,16.07
2018-11-14T13:38:09.878Z,16.30
2018-11-14T13:40:39.287Z,13.77
2018-11-14T13:43:08.255Z,16.70
2018-11-14T13:45:37.653Z,13.87
2018-11-14T13:48:07.048Z,13.77
2018-11-14T13:50:36.677Z,12.90
2018-11-14T13:53:06.484Z,13.50
2018-11-14T13:55:35.823Z,13.23
2018-11-14T13:58:05.380Z,10.83
2018-11-14T14:00:34.687Z,12.30
2018-11-14T14:03:03.972Z,11.70
2018-11-14T14:05:33.497Z,10.93
2018-11-14T14:08:02.819Z,12.00
2018-11-14T14:10:32.134Z,10.80
2018-11-14T14:13:01.652Z,10.60
2018-11-14T14:15:31.405Z,10.50
2018-11-14T14:18:00.695Z,9.77
2018-11-14T14:20:30.005Z,10.27
2018-11-14T14:22:59.395Z,10.80
2018-11-14T14:25:28.924Z,10.00
2018-11-14T14:27:58.224Z,10.57
2018-11-14T14:30:27.575Z,10.90
2018-11-14T14:32:56.902Z,10.10
2018-11-14T14:35:26.338Z,10.60
2018-11-14T14:37:55.751Z,10.83
2018-11-14T14:40:25.049Z,11.27
2018-11-14T14:42:54.353Z,10.50
2018-11-14T14:45:24.977Z,10.57
2018-11-14T14:47:54.277Z,9.23
2018-11-14T14:50:23.550Z,10.87
2018-11-14T14:52:52.905Z,9.50
2018-11-14T14:55:23.762Z,10.83
2018-11-14T14:57:53.117Z,10.37
2018-11-14T15:00:24.794Z,10.90
2018-11-14T15:02:54.260Z,10.90
2018-11-14T15:05:23.573Z,11.20
2018-11-14T15:07:52.917Z,10.60
2018-11-14T15:10:23.431Z,10.93
2018-11-14T15:12:52.837Z,10.17
2018-11-14T15:15:22.289Z,11.03
2018-11-14T15:17:51.536Z,11.60
2018-11-14T15:20:22.352Z,12.37
2018-11-14T15:22:52.242Z,11.23
2018-11-14T15:25:22.787Z,11.73
2018-11-14T15:27:52.681Z,12.33
2018-11-14T15:30:23.948Z,10.33
2018-11-14T15:32:53.347Z,11.80
2018-11-14T15:35:22.859Z,10.03
2018-11-14T15:37:52.176Z,9.97
2018-11-14T15:40:22.740Z,10.87
2018-11-14T15:42:52.590Z,12.20
2018-11-14T15:45:24.397Z,12.50
2018-11-14T15:47:53.772Z,12.50
2018-11-14T15:50:24.653Z,11.80
2018-11-14T15:52:55.238Z,12.53
2018-11-14T15:55:24.678Z,11.53
2018-11-14T15:57:54.216Z,12.37
2018-11-14T16:00:28.954Z,12.40
2018-11-14T16:02:58.420Z,11.73
2018-11-14T16:05:29.544Z,11.00
2018-11-14T16:08:00.206Z,11.23
2018-11-14T16:10:30.433Z,11.37
2018-11-14T16:12:59.765Z,10.40
2018-11-14T16:15:32.771Z,11.60
2018-11-14T16:18:02.135Z,10.20
2018-11-14T16:20:31.450Z,10.73
2018-11-14T16:23:01.003Z,11.40
2018-11-14T16:25:30.382Z,10.40
2018-11-14T16:28:00.886Z,10.23
2018-11-14T16:30:32.243Z,11.30
2018-11-14T16:33:03.133Z,11.23
2018-11-14T16:35:32.492Z,10.93
2018-11-14T16:38:02.210Z,10.90
2018-11-14T16:40:32.760Z,10.67
2018-11-14T16:43:03.458Z,12.40
2018-11-14T16:45:32.723Z,11.80
2018-11-14T16:48:02.062Z,11.67
2018-11-14T16:50:31.424Z,12.57
2018-11-14T16:53:00.764Z,14.10
2018-11-14T16:55:30.047Z,12.17
2018-11-14T16:57:59.515Z,11.43
2018-11-14T17:00:31.132Z,11.17
2018-11-14T17:03:00.816Z,11.27
2018-11-14T17:05:31.468Z,11.63
2018-11-14T17:08:00.759Z,12.43
2018-11-14T17:10:30.092Z,14.77
2018-11-14T17:13:00.289Z,14.40
2018-11-14T17:15:29.983Z,14.40
2018-11-14T17:18:00.428Z,12.00
2018-11-14T17:20:29.720Z,12.60
2018-11-14T17:22:58.986Z,11.87
2018-11-14T17:25:28.416Z,13.53
2018-11-14T17:27:58.013Z,13.13
2018-11-14T17:30:28.600Z,12.67
2018-11-14T17:32:57.975Z,13.10
2018-11-14T17:35:27.918Z,13.90
2018-11-14T17:37:57.294Z,13.07
2018-11-14T17:40:29.045Z,13.90
2018-11-14T17:42:58.502Z,13.87
2018-11-14T17:45:29.061Z,13.47
2018-11-14T17:47:59.104Z,12.80
2018-11-14T17:50:31.479Z,12.80
2018-11-14T17:53:01.791Z,13.20
2018-11-14T17:55:31.544Z,13.10
2018-11-14T17:58:01.210Z,12.23
2018-11-14T18:00:31.532Z,12.63
2018-11-14T18:03:01.007Z,13.47
2018-11-14T18:05:31.218Z,11.67
2018-11-14T18:08:00.511Z,13.43
2018-11-14T18:10:30.814Z,12.40
2018-11-14T18:13:01.199Z,12.80
2018-11-14T18:15:30.631Z,10.83
2018-11-14T18:18:00.065Z,12.60
2018-11-14T18:20:31.116Z,11.53
2018-11-14T18:23:00.555Z,10.97
2018-11-14T18:25:29.959Z,10.90
2018-11-14T18:27:59.329Z,10.80
2018-11-14T18:30:29.966Z,11.37
2018-11-14T18:33:00.450Z,11.03
2018-11-14T18:35:29.951Z,10.67
2018-11-14T18:38:00.182Z,13.20
2018-11-14T18:40:31.492Z,12.33
2018-11-14T18:43:00.860Z,11.83
2018-11-14T18:45:33.455Z,11.43
2018-11-14T18:48:09.388Z,10.10
2018-11-14T18:50:38.774Z,12.97
2018-11-14T18:53:08.160Z,12.33
2018-11-14T18:55:37.588Z,12.57
2018-11-14T18:58:07.876Z,12.47
2018-11-14T19:00:37.245Z,10.93
2018-11-14T19:03:06.699Z,11.17
2018-11-14T19:05:36.073Z,10.70
2018-11-14T19:08:05.782Z,11.10
2018-11-14T19:10:35.687Z,10.93
2018-11-14T19:13:05.483Z,11.10
2018-11-14T19:15:36.240Z,9.87
2018-11-14T19:18:05.849Z,9.77
2018-11-14T19:20:36.531Z,10.07
2018-11-14T19:23:06.860Z,10.07
2018-11-14T19:25:37.292Z,10.17
2018-11-14T19:28:07.123Z,10.10
2018-11-14T19:30:37.677Z,11.73
2018-11-14T19:33:07.031Z,11.10
2018-11-14T19:35:36.365Z,12.00
2018-11-14T19:38:06.088Z,11.00
2018-11-14T19:40:36.918Z,12.03
2018-11-14T19:43:10.830Z,11.80
2018-11-14T19:45:41.273Z,11.73
2018-11-14T19:48:10.629Z,12.10
2018-11-14T19:50:40.062Z,11.70
2018-11-14T19:53:09.593Z,12.23
2018-11-14T19:55:39.038Z,13.03
2018-11-14T19:58:08.441Z,12.27
2018-11-14T20:00:39.172Z,11.27
2018-11-14T20:03:09.455Z,12.80
2018-11-14T20:05:38.933Z,11.83
2018-11-14T20:08:08.439Z,11.93
2018-11-14T20:10:37.938Z,14.13
2018-11-14T20:13:07.531Z,11.50
2018-11-14T20:15:38.169Z,12.90
2018-11-14T20:18:08.523Z,12.80
2018-11-14T20:20:39.710Z,13.37
2018-11-14T20:23:09.214Z,13.37
2018-11-14T20:25:38.550Z,13.00
2018-11-14T20:28:08.064Z,13.40
2018-11-14T20:30:38.740Z,12.23
2018-11-14T20:33:10.025Z,13.10
2018-11-14T20:35:39.351Z,12.13
2018-11-14T20:38:08.723Z,11.80
2018-11-14T20:40:42.712Z,11.77
2018-11-14T20:43:12.213Z,11.57
2018-11-14T20:45:41.576Z,12.10
2018-11-14T20:48:10.967Z,12.73
2018-11-14T20:50:40.292Z,10.30
2018-11-14T20:53:09.626Z,11.23
2018-11-14T20:55:39.306Z,11.80
2018-11-14T20:58:08.752Z,11.43
2018-11-14T21:00:38.959Z,11.67
2018-11-14T21:03:08.960Z,13.90
2018-11-14T21:05:38.305Z,11.80
2018-11-14T21:08:07.736Z,12.60
2018-11-14T21:10:37.202Z,12.13
2018-11-14T21:13:07.054Z,12.13
2018-11-14T21:16:03.310Z,11.33
2018-11-14T21:18:35.587Z,11.50
2018-11-14T21:21:07.136Z,12.80
2018-11-14T21:23:36.452Z,12.13
2018-11-14T21:26:05.768Z,13.20
2018-11-14T21:28:35.123Z,12.57
2018-11-14T21:31:04.485Z,13.10
2018-11-14T21:33:33.831Z,12.60
2018-11-14T21:36:03.179Z,11.67
2018-11-14T21:38:32.594Z,12.30
2018-11-14T21:41:01.779Z,12.70
2018-11-14T21:43:31.370Z,13.03
2018-11-14T21:46:01.500Z,14.90
2018-11-14T21:48:30.814Z,14.23
2018-11-14T21:51:00.159Z,11.73
2018-11-14T21:53:29.698Z,12.30
2018-11-14T21:55:59.275Z,11.27
2018-11-14T21:58:28.585Z,12.33
2018-11-14T22:00:58.002Z,10.27
2018-11-14T22:03:27.310Z,12.53
2018-11-14T22:05:56.917Z,11.13
2018-11-14T22:08:26.247Z,10.97
2018-11-14T22:10:55.657Z,13.17
2018-11-14T22:13:24.988Z,11.90
2018-11-14T22:15:54.420Z,10.90
2018-11-14T22:18:23.735Z,11.70
2018-11-14T22:20:53.175Z,11.73
2018-11-14T22:23:22.548Z,12.33
2018-11-14T22:25:51.864Z,12.30
2018-11-14T22:28:21.406Z,11.63
2018-11-14T22:30:50.705Z,10.40
2018-11-14T22:33:20.089Z,12.70
2018-11-14T22:35:49.376Z,11.40
2018-11-14T22:38:18.678Z,11.10
2018-11-14T22:40:47.979Z,12.50
2018-11-14T22:43:17.317Z,11.90
2018-11-14T22:45:46.639Z,10.87
2018-11-14T22:48:15.976Z,11.87
2018-11-14T22:50:45.781Z,10.67
2018-11-14T22:53:15.091Z,10.90
2018-11-14T22:55:44.499Z,11.30
2018-11-14T22:58:13.799Z,12.30
2018-11-14T23:00:45.890Z,10.90
2018-11-14T23:03:15.238Z,11.00
2018-11-14T23:05:47.396Z,12.77
2018-11-14T23:08:17.058Z,11.03
2018-11-14T23:10:46.354Z,10.70
2018-11-14T23:13:15.648Z,11.43
2018-11-14T23:15:45.310Z,11.07
2018-11-14T23:18:14.628Z,13.73
2018-11-14T23:20:44.023Z,13.80
2018-11-14T23:23:13.363Z,13.70
2018-11-14T23:25:42.636Z,13.37
2018-11-14T23:28:11.913Z,13.60
2018-11-14T23:30:41.580Z,11.73
2018-11-14T23:33:11.001Z,10.20
2018-11-14T23:35:40.292Z,11.10
2018-11-14T23:38:09.715Z,9.93
2018-11-14T23:40:39.024Z,10.90
2018-11-14T23:43:08.326Z,9.50
2018-11-14T23:45:37.630Z,11.13
2018-11-14T23:48:07.304Z,10.33
2018-11-14T23:50:36.652Z,11.37
2018-11-14T23:53:06.198Z,11.30
2018-11-14T23:55:35.707Z,11.93
2018-11-14T23:58:05.131Z,11.90
